aviador You're here:

K1S5 Decoded Metar

in
Report Time2017-05-26 10:55:00
UTC Time2017-05-26 11:15:50
Flight Rules vfr VFR
WindCalm
Visibility9999 m
Phenomena:N/A
Clouds:N/A
Expected CloudBase > 400 ft AGL from Temp-Dew spread
CeilingNone
Temp06°C
Dew Point05°C (93% RH)
AAT4.9°C
QNH1013 hPa
Raw Report
K1S5 261055Z AUTO 00000KT 10SM CLR 06/05 A2991 RMK AO2
T00590045=

Extra information for K1S5:More info

Social comments